First Clarity — A8RM8 — position and weather

sailwx.info

Track history (hours):
 
Tides and Currents Weather Stations Pressure Air Temp Water Temp Dewpoint Dewpoint Depression Visibility Wind Speed Wind Dir Waves Ship Positions

First Clarity

Last reported at 2017-Jul-21 10:40 UTC. Time now 2017-Aug-20 02:16 UTC.
Position N 34°08' E 125°43'.
Warning: this ship's position is 29 days out of date.

Length 104 m; draft 6.2 m.

Type: Cargo ship. MMSI: 636014129.

Date/timePositionNaut miles runAvg speedWind from/ knotsBaromVisibWave heightAir tempDewpointWater temp
2017-Jul-21 10:40N 34°08' E 125°43'210.3
2017-Jul-21 10:28N 34°07' E 125°46'610.1
2017-Jul-21 09:54N 34°04' E 125°51'9 9.5
2017-Jul-21 08:57N 33°59' E 126°01'9 8.4
2017-Jul-21 07:55N 33°54' E 126°09'3 7.9
2017-Jul-21 07:30N 33°53' E 126°13'14 7.1
2017-Jul-21 05:35N 33°47' E 126°28'1 7.0
2017-Jul-21 05:30N 33°47' E 126°28'4 7.1
2017-Jul-21 05:00N 33°46' E 126°33'4 7.7
2017-Jul-21 04:30N 33°45' E 126°37'73 9.7
2017-Jul-20 20:58N 33°04' E 127°50'  
Track history (hours):
 
Tides and Currents Weather Stations Pressure Air Temp Water Temp Dewpoint Dewpoint Depression Visibility Wind Speed Wind Dir Waves Ship Positions

First Clarity

Last reported at 2017-Jul-21 10:40 UTC. Time now 2017-Aug-20 02:16 UTC.
Position N 34°08' E 125°43'.
Warning: this ship's position is 29 days out of date.

Length 104 m; draft 6.2 m.

Type: Cargo ship. MMSI: 636014129.

Date/timePositionNaut miles runAvg speedWind from/ knotsBaromVisibWave heightAir tempDewpointWater temp
2017-Jul-21 10:40N 34°08' E 125°43'210.3
2017-Jul-21 10:28N 34°07' E 125°46'610.1
2017-Jul-21 09:54N 34°04' E 125°51'9 9.5
2017-Jul-21 08:57N 33°59' E 126°01'9 8.4
2017-Jul-21 07:55N 33°54' E 126°09'3 7.9
2017-Jul-21 07:30N 33°53' E 126°13'14 7.1
2017-Jul-21 05:35N 33°47' E 126°28'1 7.0
2017-Jul-21 05:30N 33°47' E 126°28'4 7.1
2017-Jul-21 05:00N 33°46' E 126°33'4 7.7
2017-Jul-21 04:30N 33°45' E 126°37'73 9.7
2017-Jul-20 20:58N 33°04' E 127°50'  

Dump ship's entire track history